sensor_id;sensor_type;location;lat;lon;timestamp;temperature;humidity
1570;DHT22;778;50.120;8.698;2023-07-29T00:01:56;19.40;99.90
1570;DHT22;778;50.120;8.698;2023-07-29T00:04:24;19.40;99.90
1570;DHT22;778;50.120;8.698;2023-07-29T00:06:53;19.50;99.90
1570;DHT22;778;50.120;8.698;2023-07-29T00:09:21;19.40;99.90
1570;DHT22;778;50.120;8.698;2023-07-29T00:11:51;19.50;99.90
1570;DHT22;778;50.120;8.698;2023-07-29T00:14:19;19.40;99.90
1570;DHT22;778;50.120;8.698;2023-07-29T00:16:48;19.40;99.90
1570;DHT22;778;50.120;8.698;2023-07-29T00:19:16;19.30;99.90
1570;DHT22;778;50.120;8.698;2023-07-29T00:21:44;19.30;99.90
1570;DHT22;778;50.120;8.698;2023-07-29T00:24:13;19.30;99.90
1570;DHT22;778;50.120;8.698;2023-07-29T00:26:41;19.40;99.90
1570;DHT22;778;50.120;8.698;2023-07-29T00:29:11;19.50;99.90
1570;DHT22;778;50.120;8.698;2023-07-29T00:31:39;19.50;99.90
1570;DHT22;778;50.120;8.698;2023-07-29T00:34:08;19.50;99.90
1570;DHT22;778;50.120;8.698;2023-07-29T00:36:36;19.50;99.90
1570;DHT22;778;50.120;8.698;2023-07-29T00:39:05;19.70;99.90
1570;DHT22;778;50.120;8.698;2023-07-29T00:41:33;19.60;99.90
1570;DHT22;778;50.120;8.698;2023-07-29T00:44:02;19.50;99.90
1570;DHT22;778;50.120;8.698;2023-07-29T00:46:34;19.70;99.90
1570;DHT22;778;50.120;8.698;2023-07-29T00:49:03;19.60;99.90
1570;DHT22;778;50.120;8.698;2023-07-29T00:51:31;19.60;99.90
1570;DHT22;778;50.120;8.698;2023-07-29T00:54:00;19.50;99.90
1570;DHT22;778;50.120;8.698;2023-07-29T00:56:28;19.40;99.90
1570;DHT22;778;50.120;8.698;2023-07-29T00:58:57;19.40;99.90
1570;DHT22;778;50.120;8.698;2023-07-29T01:01:29;19.40;99.90
1570;DHT22;778;50.120;8.698;2023-07-29T01:03:59;19.40;99.90
1570;DHT22;778;50.120;8.698;2023-07-29T01:06:34;19.30;99.90
1570;DHT22;778;50.120;8.698;2023-07-29T01:09:11;19.30;99.90
1570;DHT22;778;50.120;8.698;2023-07-29T01:11:52;19.30;99.90
1570;DHT22;778;50.120;8.698;2023-07-29T01:14:31;19.30;99.90
1570;DHT22;778;50.120;8.698;2023-07-29T01:17:07;19.30;99.90
1570;DHT22;778;50.120;8.698;2023-07-29T01:19:52;19.40;99.90
1570;DHT22;778;50.120;8.698;2023-07-29T01:22:27;19.40;99.90
1570;DHT22;778;50.120;8.698;2023-07-29T01:24:58;19.30;99.90
1570;DHT22;778;50.120;8.698;2023-07-29T01:27:26;19.30;99.90
1570;DHT22;778;50.120;8.698;2023-07-29T01:29:56;19.30;99.90
1570;DHT22;778;50.120;8.698;2023-07-29T01:32:29;19.30;99.90
1570;DHT22;778;50.120;8.698;2023-07-29T01:35:10;19.30;99.90
1570;DHT22;778;50.120;8.698;2023-07-29T01:37:46;19.30;99.90
1570;DHT22;778;50.120;8.698;2023-07-29T01:40:19;19.30;99.90
1570;DHT22;778;50.120;8.698;2023-07-29T01:42:48;19.30;99.90
1570;DHT22;778;50.120;8.698;2023-07-29T01:45:16;19.20;99.90
1570;DHT22;778;50.120;8.698;2023-07-29T01:47:45;19.20;99.90
1570;DHT22;778;50.120;8.698;2023-07-29T01:50:14;19.20;99.90
1570;DHT22;778;50.120;8.698;2023-07-29T01:52:43;19.20;99.90
1570;DHT22;778;50.120;8.698;2023-07-29T01:55:11;19.20;99.90
1570;DHT22;778;50.120;8.698;2023-07-29T01:57:41;19.20;99.90
1570;DHT22;778;50.120;8.698;2023-07-29T02:00:12;19.10;99.90
1570;DHT22;778;50.120;8.698;2023-07-29T02:02:40;19.10;99.90
1570;DHT22;778;50.120;8.698;2023-07-29T02:05:09;19.10;99.90
1570;DHT22;778;50.120;8.698;2023-07-29T02:07:37;19.00;99.90
1570;DHT22;778;50.120;8.698;2023-07-29T02:10:07;19.00;99.90
1570;DHT22;778;50.120;8.698;2023-07-29T02:12:36;19.00;99.90
1570;DHT22;778;50.120;8.698;2023-07-29T02:15:07;19.00;99.90
1570;DHT22;778;50.120;8.698;2023-07-29T02:17:36;19.10;99.90
1570;DHT22;778;50.120;8.698;2023-07-29T02:20:05;19.10;99.90
1570;DHT22;778;50.120;8.698;2023-07-29T02:22:35;19.10;99.90
1570;DHT22;778;50.120;8.698;2023-07-29T02:25:04;19.10;99.90
1570;DHT22;778;50.120;8.698;2023-07-29T02:27:32;19.20;99.90
1570;DHT22;778;50.120;8.698;2023-07-29T02:30:01;19.20;99.90
1570;DHT22;778;50.120;8.698;2023-07-29T02:32:31;19.20;99.90
1570;DHT22;778;50.120;8.698;2023-07-29T02:34:59;19.20;99.90
1570;DHT22;778;50.120;8.698;2023-07-29T02:37:28;19.20;99.90
1570;DHT22;778;50.120;8.698;2023-07-29T02:39:56;19.20;99.90
1570;DHT22;778;50.120;8.698;2023-07-29T02:42:25;19.20;99.90
1570;DHT22;778;50.120;8.698;2023-07-29T02:44:53;19.10;99.90
1570;DHT22;778;50.120;8.698;2023-07-29T02:47:22;19.10;99.90
1570;DHT22;778;50.120;8.698;2023-07-29T02:49:52;19.10;99.90
1570;DHT22;778;50.120;8.698;2023-07-29T02:52:20;19.20;99.90
1570;DHT22;778;50.120;8.698;2023-07-29T02:54:49;19.20;99.90
1570;DHT22;778;50.120;8.698;2023-07-29T02:57:17;19.20;99.90
1570;DHT22;778;50.120;8.698;2023-07-29T02:59:46;19.20;99.90
1570;DHT22;778;50.120;8.698;2023-07-29T03:02:14;19.20;99.90
1570;DHT22;778;50.120;8.698;2023-07-29T03:04:43;19.20;99.90
1570;DHT22;778;50.120;8.698;2023-07-29T03:07:13;19.30;99.90
1570;DHT22;778;50.120;8.698;2023-07-29T03:09:41;19.30;99.90
1570;DHT22;778;50.120;8.698;2023-07-29T03:12:11;19.30;99.90
1570;DHT22;778;50.120;8.698;2023-07-29T03:14:39;19.20;99.90
1570;DHT22;778;50.120;8.698;2023-07-29T03:17:08;19.20;99.90
1570;DHT22;778;50.120;8.698;2023-07-29T03:19:37;19.20;99.90
1570;DHT22;778;50.120;8.698;2023-07-29T03:22:05;19.10;99.90
1570;DHT22;778;50.120;8.698;2023-07-29T03:24:35;19.10;99.90
1570;DHT22;778;50.120;8.698;2023-07-29T03:27:04;19.10;99.90
1570;DHT22;778;50.120;8.698;2023-07-29T03:29:33;19.10;99.90
1570;DHT22;778;50.120;8.698;2023-07-29T03:32:03;19.10;99.90
1570;DHT22;778;50.120;8.698;2023-07-29T03:34:32;19.00;99.90
1570;DHT22;778;50.120;8.698;2023-07-29T03:37:01;19.00;99.90
1570;DHT22;778;50.120;8.698;2023-07-29T03:39:29;19.00;99.90
1570;DHT22;778;50.120;8.698;2023-07-29T03:41:59;19.00;99.90
1570;DHT22;778;50.120;8.698;2023-07-29T03:44:27;19.00;99.90
1570;DHT22;778;50.120;8.698;2023-07-29T03:46:55;19.00;99.90
1570;DHT22;778;50.120;8.698;2023-07-29T03:49:24;19.00;99.90
1570;DHT22;778;50.120;8.698;2023-07-29T03:51:52;19.00;99.90
1570;DHT22;778;50.120;8.698;2023-07-29T03:54:21;19.10;99.90
1570;DHT22;778;50.120;8.698;2023-07-29T03:56:49;19.20;99.90
1570;DHT22;778;50.120;8.698;2023-07-29T03:59:19;19.10;99.90
1570;DHT22;778;50.120;8.698;2023-07-29T04:01:49;19.10;99.90
1570;DHT22;778;50.120;8.698;2023-07-29T04:04:18;19.20;99.90
1570;DHT22;778;50.120;8.698;2023-07-29T04:06:47;19.20;99.90
1570;DHT22;778;50.120;8.698;2023-07-29T04:09:15;19.20;99.90
1570;DHT22;778;50.120;8.698;2023-07-29T04:11:43;19.20;99.90
1570;DHT22;778;50.120;8.698;2023-07-29T04:14:12;19.20;99.90
1570;DHT22;778;50.120;8.698;2023-07-29T04:16:42;19.30;99.90
1570;DHT22;778;50.120;8.698;2023-07-29T04:19:12;19.30;99.90
1570;DHT22;778;50.120;8.698;2023-07-29T04:21:40;19.20;99.90
1570;DHT22;778;50.120;8.698;2023-07-29T04:24:08;19.20;99.90
1570;DHT22;778;50.120;8.698;2023-07-29T04:26:37;19.20;99.90
1570;DHT22;778;50.120;8.698;2023-07-29T04:29:05;19.20;99.90
1570;DHT22;778;50.120;8.698;2023-07-29T04:31:34;19.20;99.90
1570;DHT22;778;50.120;8.698;2023-07-29T04:34:05;19.20;99.90
1570;DHT22;778;50.120;8.698;2023-07-29T04:36:33;19.20;99.90
1570;DHT22;778;50.120;8.698;2023-07-29T04:39:02;19.20;99.90
1570;DHT22;778;50.120;8.698;2023-07-29T04:41:31;19.20;99.90
1570;DHT22;778;50.120;8.698;2023-07-29T04:43:59;19.20;99.90
1570;DHT22;778;50.120;8.698;2023-07-29T04:46:28;19.20;99.90
1570;DHT22;778;50.120;8.698;2023-07-29T04:48:56;19.20;99.90
1570;DHT22;778;50.120;8.698;2023-07-29T04:51:26;19.20;99.90
1570;DHT22;778;50.120;8.698;2023-07-29T04:53:54;19.20;99.90
1570;DHT22;778;50.120;8.698;2023-07-29T04:56:23;19.20;99.90
1570;DHT22;778;50.120;8.698;2023-07-29T04:58:51;19.20;99.90
1570;DHT22;778;50.120;8.698;2023-07-29T05:01:20;19.30;99.90
1570;DHT22;778;50.120;8.698;2023-07-29T05:03:49;19.20;99.90
1570;DHT22;778;50.120;8.698;2023-07-29T05:06:17;19.40;99.90
1570;DHT22;778;50.120;8.698;2023-07-29T05:08:47;19.30;99.90
1570;DHT22;778;50.120;8.698;2023-07-29T05:11:15;19.40;99.90
1570;DHT22;778;50.120;8.698;2023-07-29T05:13:45;19.40;99.90
1570;DHT22;778;50.120;8.698;2023-07-29T05:16:14;19.40;99.90
1570;DHT22;778;50.120;8.698;2023-07-29T05:18:42;19.40;99.90
1570;DHT22;778;50.120;8.698;2023-07-29T05:21:11;19.50;99.90
1570;DHT22;778;50.120;8.698;2023-07-29T05:23:41;19.50;99.90
1570;DHT22;778;50.120;8.698;2023-07-29T05:26:11;19.40;99.90
1570;DHT22;778;50.120;8.698;2023-07-29T05:28:39;19.40;99.90
1570;DHT22;778;50.120;8.698;2023-07-29T05:31:07;19.50;99.90
1570;DHT22;778;50.120;8.698;2023-07-29T05:33:36;19.40;99.90
1570;DHT22;778;50.120;8.698;2023-07-29T05:36:06;19.50;99.90
1570;DHT22;778;50.120;8.698;2023-07-29T05:38:34;19.50;99.90
1570;DHT22;778;50.120;8.698;2023-07-29T05:41:03;19.60;99.90
1570;DHT22;778;50.120;8.698;2023-07-29T05:43:32;19.60;99.90
1570;DHT22;778;50.120;8.698;2023-07-29T05:46:01;19.50;99.90
1570;DHT22;778;50.120;8.698;2023-07-29T05:48:29;19.50;99.90
1570;DHT22;778;50.120;8.698;2023-07-29T05:50:58;19.50;99.90
1570;DHT22;778;50.120;8.698;2023-07-29T05:53:26;19.50;99.90
1570;DHT22;778;50.120;8.698;2023-07-29T05:55:55;19.40;99.90
1570;DHT22;778;50.120;8.698;2023-07-29T05:58:23;19.50;99.90
1570;DHT22;778;50.120;8.698;2023-07-29T06:00:54;19.50;99.90
1570;DHT22;778;50.120;8.698;2023-07-29T06:03:24;19.60;99.90
1570;DHT22;778;50.120;8.698;2023-07-29T06:05:54;19.60;99.90
1570;DHT22;778;50.120;8.698;2023-07-29T06:08:22;19.60;99.90
1570;DHT22;778;50.120;8.698;2023-07-29T06:10:50;19.60;99.90
1570;DHT22;778;50.120;8.698;2023-07-29T06:13:19;19.60;99.90
1570;DHT22;778;50.120;8.698;2023-07-29T06:15:49;19.60;99.90
1570;DHT22;778;50.120;8.698;2023-07-29T06:18:19;19.60;99.90
1570;DHT22;778;50.120;8.698;2023-07-29T06:20:47;19.70;99.90
1570;DHT22;778;50.120;8.698;2023-07-29T06:23:16;19.70;99.90
1570;DHT22;778;50.120;8.698;2023-07-29T06:25:44;19.60;99.90
1570;DHT22;778;50.120;8.698;2023-07-29T06:28:13;19.70;99.90
1570;DHT22;778;50.120;8.698;2023-07-29T06:30:41;19.60;99.90
1570;DHT22;778;50.120;8.698;2023-07-29T06:33:10;19.60;99.90
1570;DHT22;778;50.120;8.698;2023-07-29T06:35:41;19.60;99.90
1570;DHT22;778;50.120;8.698;2023-07-29T06:38:09;19.70;99.90
1570;DHT22;778;50.120;8.698;2023-07-29T06:40:38;19.60;99.90
1570;DHT22;778;50.120;8.698;2023-07-29T06:43:06;19.50;99.90
1570;DHT22;778;50.120;8.698;2023-07-29T06:45:35;19.40;99.90
1570;DHT22;778;50.120;8.698;2023-07-29T06:48:03;19.40;99.90
1570;DHT22;778;50.120;8.698;2023-07-29T06:50:32;19.40;99.90
1570;DHT22;778;50.120;8.698;2023-07-29T06:53:02;19.50;99.90
1570;DHT22;778;50.120;8.698;2023-07-29T06:55:31;19.50;99.90
1570;DHT22;778;50.120;8.698;2023-07-29T06:57:59;19.50;99.90
1570;DHT22;778;50.120;8.698;2023-07-29T07:00:27;19.60;99.90
1570;DHT22;778;50.120;8.698;2023-07-29T07:02:56;19.60;99.90
1570;DHT22;778;50.120;8.698;2023-07-29T07:05:24;19.60;99.90
1570;DHT22;778;50.120;8.698;2023-07-29T07:07:53;19.60;99.90
1570;DHT22;778;50.120;8.698;2023-07-29T07:10:22;19.60;99.90
1570;DHT22;778;50.120;8.698;2023-07-29T07:12:51;19.70;99.90
1570;DHT22;778;50.120;8.698;2023-07-29T07:15:19;19.70;99.90
1570;DHT22;778;50.120;8.698;2023-07-29T07:17:48;19.70;99.90
1570;DHT22;778;50.120;8.698;2023-07-29T07:20:16;19.70;99.90
1570;DHT22;778;50.120;8.698;2023-07-29T07:22:45;19.60;99.90
1570;DHT22;778;50.120;8.698;2023-07-29T07:25:13;19.40;99.90
1570;DHT22;778;50.120;8.698;2023-07-29T07:27:43;19.40;99.90
1570;DHT22;778;50.120;8.698;2023-07-29T07:30:12;19.50;99.90
1570;DHT22;778;50.120;8.698;2023-07-29T07:32:40;19.60;99.90
1570;DHT22;778;50.120;8.698;2023-07-29T07:35:08;19.60;99.90
1570;DHT22;778;50.120;8.698;2023-07-29T07:37:37;19.60;99.90
1570;DHT22;778;50.120;8.698;2023-07-29T07:40:07;19.50;99.90
1570;DHT22;778;50.120;8.698;2023-07-29T07:42:35;19.50;99.90
1570;DHT22;778;50.120;8.698;2023-07-29T07:45:06;19.60;99.90
1570;DHT22;778;50.120;8.698;2023-07-29T07:47:34;19.60;99.90
1570;DHT22;778;50.120;8.698;2023-07-29T07:50:03;19.50;99.90
1570;DHT22;778;50.120;8.698;2023-07-29T07:52:32;19.60;99.90
1570;DHT22;778;50.120;8.698;2023-07-29T07:55:00;19.70;99.90
1570;DHT22;778;50.120;8.698;2023-07-29T07:57:29;19.70;99.90
1570;DHT22;778;50.120;8.698;2023-07-29T07:59:57;19.70;99.90
1570;DHT22;778;50.120;8.698;2023-07-29T08:02:27;19.80;99.90
1570;DHT22;778;50.120;8.698;2023-07-29T08:04:56;19.90;99.90
1570;DHT22;778;50.120;8.698;2023-07-29T08:07:24;19.90;99.90
1570;DHT22;778;50.120;8.698;2023-07-29T08:09:52;19.80;99.90
1570;DHT22;778;50.120;8.698;2023-07-29T08:12:21;19.80;99.90
1570;DHT22;778;50.120;8.698;2023-07-29T08:14:49;19.90;99.90
1570;DHT22;778;50.120;8.698;2023-07-29T08:17:18;19.90;99.90
1570;DHT22;778;50.120;8.698;2023-07-29T08:19:48;19.90;99.90
1570;DHT22;778;50.120;8.698;2023-07-29T08:22:16;20.00;99.90
1570;DHT22;778;50.120;8.698;2023-07-29T08:24:45;20.00;99.90
1570;DHT22;778;50.120;8.698;2023-07-29T08:27:13;20.20;99.90
1570;DHT22;778;50.120;8.698;2023-07-29T08:29:41;20.20;99.90
1570;DHT22;778;50.120;8.698;2023-07-29T08:32:10;20.30;99.90
1570;DHT22;778;50.120;8.698;2023-07-29T08:34:38;20.50;99.90
1570;DHT22;778;50.120;8.698;2023-07-29T08:37:08;20.60;99.90
1570;DHT22;778;50.120;8.698;2023-07-29T08:39:36;20.70;99.90
1570;DHT22;778;50.120;8.698;2023-07-29T08:42:08;20.80;99.90
1570;DHT22;778;50.120;8.698;2023-07-29T08:44:40;21.00;99.90
1570;DHT22;778;50.120;8.698;2023-07-29T08:47:09;21.30;99.90
1570;DHT22;778;50.120;8.698;2023-07-29T08:49:38;21.40;99.90
1570;DHT22;778;50.120;8.698;2023-07-29T08:52:09;21.90;99.90
1570;DHT22;778;50.120;8.698;2023-07-29T08:54:38;22.60;99.90
1570;DHT22;778;50.120;8.698;2023-07-29T08:57:06;23.30;99.90
1570;DHT22;778;50.120;8.698;2023-07-29T08:59:35;23.90;99.90
1570;DHT22;778;50.120;8.698;2023-07-29T09:02:04;23.90;99.90
1570;DHT22;778;50.120;8.698;2023-07-29T09:04:32;24.10;99.90
1570;DHT22;778;50.120;8.698;2023-07-29T09:07:01;24.40;99.90
1570;DHT22;778;50.120;8.698;2023-07-29T09:09:31;24.70;99.90
1570;DHT22;778;50.120;8.698;2023-07-29T09:11:59;24.70;99.90
1570;DHT22;778;50.120;8.698;2023-07-29T09:14:28;24.60;99.90
1570;DHT22;778;50.120;8.698;2023-07-29T09:16:57;24.70;99.90
1570;DHT22;778;50.120;8.698;2023-07-29T09:19:26;24.50;99.90
1570;DHT22;778;50.120;8.698;2023-07-29T09:21:55;24.80;99.90
1570;DHT22;778;50.120;8.698;2023-07-29T09:24:23;24.70;99.90
1570;DHT22;778;50.120;8.698;2023-07-29T09:26:54;24.70;99.90
1570;DHT22;778;50.120;8.698;2023-07-29T09:29:23;24.80;99.90
1570;DHT22;778;50.120;8.698;2023-07-29T09:31:51;25.00;99.90
1570;DHT22;778;50.120;8.698;2023-07-29T09:34:20;25.30;99.90
1570;DHT22;778;50.120;8.698;2023-07-29T09:36:50;25.60;99.90
1570;DHT22;778;50.120;8.698;2023-07-29T09:39:23;25.40;99.90
1570;DHT22;778;50.120;8.698;2023-07-29T09:41:53;24.80;99.90
1570;DHT22;778;50.120;8.698;2023-07-29T09:44:21;24.60;99.90
1570;DHT22;778;50.120;8.698;2023-07-29T09:46:49;24.30;99.90
1570;DHT22;778;50.120;8.698;2023-07-29T09:49:18;24.40;99.90
1570;DHT22;778;50.120;8.698;2023-07-29T09:51:46;24.30;99.90
1570;DHT22;778;50.120;8.698;2023-07-29T09:54:16;24.30;99.90
1570;DHT22;778;50.120;8.698;2023-07-29T09:56:45;24.70;99.90
1570;DHT22;778;50.120;8.698;2023-07-29T09:59:18;24.90;99.90
1570;DHT22;778;50.120;8.698;2023-07-29T10:01:47;25.00;99.90
1570;DHT22;778;50.120;8.698;2023-07-29T10:04:17;24.80;99.90
1570;DHT22;778;50.120;8.698;2023-07-29T10:06:46;24.60;99.90
1570;DHT22;778;50.120;8.698;2023-07-29T10:09:15;24.50;99.90
1570;DHT22;778;50.120;8.698;2023-07-29T10:11:45;24.10;99.90
1570;DHT22;778;50.120;8.698;2023-07-29T10:16:46;24.90;99.90
